Time;durP1;ratioP1;P1;durP2;ratioP2;P2;SDS_P1;SDS_P2;PMS_P1;PMS_P2;Temp;Humidity;BMP_temperature;BMP_pressure;BME280_temperature;BME280_humidity;BME280_pressure;Samples;Min_cycle;Max_cycle;Signal;HPM_P1;HPM_P2
2022/09/25 00:00:36;;;;;;;14.20;12.70;;;15.90;99.90;;;;;;5006210;28;21006;-71
2022/09/25 00:03:02;;;;;;;15.87;13.10;;;15.90;99.90;;;;;;5003294;28;20222;-71
2022/09/25 00:05:28;;;;;;;14.17;11.60;;;15.80;99.90;;;;;;5001960;28;20431;-70
2022/09/25 00:07:55;;;;;;;19.30;13.67;;;15.80;99.90;;;;;;5005680;28;20676;-70
2022/09/25 00:10:24;;;;;;;13.67;12.37;;;15.70;99.90;;;;;;5006011;28;20313;-71
2022/09/25 00:12:50;;;;;;;16.70;12.73;;;15.80;99.90;;;;;;5013620;28;20814;-71
2022/09/25 00:15:17;;;;;;;14.10;11.93;;;15.70;99.90;;;;;;5000726;28;20451;-71
2022/09/25 00:17:43;;;;;;;14.67;13.20;;;15.70;99.90;;;;;;5005172;28;20420;-71
2022/09/25 00:20:09;;;;;;;15.10;13.50;;;15.70;99.90;;;;;;5017979;28;21611;-71
2022/09/25 00:22:35;;;;;;;14.03;11.10;;;15.80;99.90;;;;;;5000533;28;20213;-71
2022/09/25 00:25:01;;;;;;;14.80;11.83;;;15.80;99.90;;;;;;4990508;28;20429;-71
2022/09/25 00:27:27;;;;;;;13.87;12.17;;;15.90;99.90;;;;;;4985387;28;20531;-71
2022/09/25 00:29:53;;;;;;;15.83;13.20;;;15.80;99.90;;;;;;5010058;28;20473;-72
2022/09/25 00:32:19;;;;;;;16.83;14.00;;;15.80;99.90;;;;;;5001430;28;20441;-71
2022/09/25 00:34:45;;;;;;;15.27;13.23;;;15.80;99.90;;;;;;5002080;28;20218;-70
2022/09/25 00:37:10;;;;;;;14.13;12.40;;;15.80;99.90;;;;;;5000677;28;20465;-71
2022/09/25 00:39:36;;;;;;;16.27;13.07;;;15.90;99.90;;;;;;5003281;28;20201;-70
2022/09/25 00:42:02;;;;;;;14.33;12.83;;;16.00;99.90;;;;;;5004610;28;20712;-70
2022/09/25 00:44:56;;;;;;;23.83;13.20;;;15.80;99.90;;;;;;4999892;28;20177;-70
2022/09/25 00:47:50;;;;;;;16.90;13.00;;;15.80;99.90;;;;;;5002813;28;20543;-71
2022/09/25 00:50:37;;;;;;;14.53;12.90;;;15.80;99.90;;;;;;4993867;28;20498;-71
2022/09/25 00:53:12;;;;;;;15.30;12.13;;;15.80;99.90;;;;;;5002961;28;21616;-70
2022/09/25 00:55:41;;;;;;;13.07;11.77;;;15.90;99.90;;;;;;4999181;28;20433;-71
2022/09/25 00:58:07;;;;;;;19.40;12.00;;;15.90;99.90;;;;;;4998025;28;20620;-70
2022/09/25 01:00:34;;;;;;;15.97;13.20;;;15.80;99.90;;;;;;4993598;28;20873;-71
2022/09/25 01:03:01;;;;;;;17.80;12.33;;;15.70;99.90;;;;;;5001552;28;20530;-71
2022/09/25 01:05:34;;;;;;;16.00;13.90;;;15.80;99.90;;;;;;4999665;28;20507;-71
2022/09/25 01:08:02;;;;;;;14.10;12.50;;;15.80;99.90;;;;;;5001447;28;20523;-71
2022/09/25 01:10:28;;;;;;;17.77;12.27;;;16.00;99.90;;;;;;5005333;28;20475;-72
2022/09/25 01:12:56;;;;;;;16.67;13.67;;;15.90;99.90;;;;;;5004924;28;20445;-71
2022/09/25 01:15:43;;;;;;;15.17;12.93;;;15.90;99.90;;;;;;5001465;28;20444;-71
2022/09/25 01:18:27;;;;;;;18.53;13.40;;;15.90;99.90;;;;;;5001470;28;20835;-71
2022/09/25 01:21:19;;;;;;;15.93;12.93;;;15.80;99.90;;;;;;5001980;28;20448;-71
2022/09/25 01:23:50;;;;;;;15.57;13.90;;;15.80;99.90;;;;;;5004728;28;20456;-70
2022/09/25 01:26:43;;;;;;;18.07;14.33;;;15.80;99.90;;;;;;4994011;28;20437;-71
2022/09/25 01:29:20;;;;;;;16.47;12.83;;;15.80;99.90;;;;;;5010847;28;20479;-70
2022/09/25 01:32:05;;;;;;;17.43;13.80;;;15.80;99.90;;;;;;5003433;28;20676;-71
2022/09/25 01:34:33;;;;;;;16.07;13.60;;;15.80;99.90;;;;;;5003961;28;20497;-71
2022/09/25 01:37:19;;;;;;;16.00;13.80;;;15.80;99.90;;;;;;5002194;28;20511;-71
2022/09/25 01:40:00;;;;;;;14.53;12.90;;;15.80;99.90;;;;;;4997235;28;20956;-71
2022/09/25 01:42:31;;;;;;;16.00;13.73;;;15.70;99.90;;;;;;4996512;28;20441;-70
2022/09/25 01:45:05;;;;;;;20.20;14.47;;;15.70;99.90;;;;;;4992995;28;20541;-70
2022/09/25 01:47:38;;;;;;;14.67;13.13;;;15.70;99.90;;;;;;5003471;28;20456;-70
2022/09/25 01:50:12;;;;;;;15.50;12.70;;;15.80;99.90;;;;;;4999409;28;20467;-70
2022/09/25 01:52:43;;;;;;;14.20;12.23;;;15.70;99.90;;;;;;5001276;28;20538;-71
2022/09/25 01:55:21;;;;;;;14.70;11.93;;;15.80;99.90;;;;;;4998024;28;21027;-72
2022/09/25 01:58:17;;;;;;;14.50;12.57;;;15.70;99.90;;;;;;5002886;28;20415;-71
2022/09/25 02:00:50;;;;;;;21.20;13.63;;;15.60;99.90;;;;;;5006104;28;20518;-71
2022/09/25 02:03:27;;;;;;;22.27;14.43;;;15.60;99.90;;;;;;4998278;28;20447;-71
2022/09/25 02:05:56;;;;;;;16.00;12.90;;;15.70;99.90;;;;;;5002052;28;20548;-71
2022/09/25 02:08:34;;;;;;;19.20;13.33;;;15.60;99.90;;;;;;4994426;28;20450;-71
2022/09/25 02:11:03;;;;;;;15.10;12.67;;;15.60;99.90;;;;;;4993308;28;20983;-71
2022/09/25 02:13:40;;;;;;;15.40;13.77;;;15.60;99.90;;;;;;4998361;28;20818;-71
2022/09/25 02:16:13;;;;;;;15.27;13.67;;;15.60;99.90;;;;;;4997427;28;20417;-71
2022/09/25 02:21:33;;;;;;;18.53;13.27;;;15.60;99.90;;;;;;4997567;28;20896;-71
2022/09/25 02:24:13;;;;;;;14.40;12.30;;;15.60;99.90;;;;;;4997211;28;20958;-71
2022/09/25 02:26:39;;;;;;;14.93;12.70;;;15.60;99.90;;;;;;4995150;28;20443;-71
2022/09/25 02:29:07;;;;;;;16.07;12.50;;;15.70;99.90;;;;;;5007291;28;20470;-70
2022/09/25 02:31:41;;;;;;;15.70;13.23;;;15.60;99.90;;;;;;5002681;28;20459;-70
2022/09/25 02:34:07;;;;;;;18.40;12.47;;;15.50;99.90;;;;;;5004146;28;20460;-72
2022/09/25 02:36:33;;;;;;;15.87;12.60;;;15.50;99.90;;;;;;5000941;28;20828;-71
2022/09/25 02:39:01;;;;;;;14.90;12.50;;;15.50;99.90;;;;;;5005455;28;20431;-71
2022/09/25 02:41:55;;;;;;;14.60;12.33;;;15.60;99.90;;;;;;5002523;28;20452;-70
2022/09/25 02:44:30;;;;;;;13.43;11.83;;;15.60;99.90;;;;;;5002151;28;20421;-71
2022/09/25 02:47:23;;;;;;;15.53;12.83;;;15.60;99.90;;;;;;5001242;28;20421;-71
2022/09/25 02:50:04;;;;;;;18.07;12.40;;;15.50;99.90;;;;;;5002471;28;20464;-71
2022/09/25 02:52:36;;;;;;;17.03;13.03;;;15.50;99.90;;;;;;4995278;28;20454;-71
2022/09/25 02:55:01;;;;;;;15.67;13.27;;;15.60;99.90;;;;;;4998922;28;20413;-71
2022/09/25 02:58:20;;;;;;;15.47;11.77;;;15.60;99.90;;;;;;4997984;28;20428;-71
2022/09/25 03:00:49;;;;;;;14.83;12.97;;;15.60;99.90;;;;;;4984965;28;20197;-70
2022/09/25 03:03:18;;;;;;;15.80;13.03;;;15.60;99.90;;;;;;4994910;28;20437;-70
2022/09/25 03:05:46;;;;;;;14.30;12.80;;;15.60;99.90;;;;;;5001097;28;20474;-71
2022/09/25 03:10:58;;;;;;;15.03;12.97;;;15.60;99.90;;;;;;4998550;28;20902;-72
2022/09/25 03:13:30;;;;;;;15.60;12.87;;;15.60;99.90;;;;;;5003879;28;21029;-71
2022/09/25 03:16:01;;;;;;;14.90;12.73;;;15.60;99.90;;;;;;5001464;28;20427;-71
2022/09/25 03:18:27;;;;;;;15.63;13.97;;;15.60;99.90;;;;;;5001631;28;20475;-71
2022/09/25 03:20:53;;;;;;;18.47;14.13;;;15.60;99.90;;;;;;4995502;28;20421;-71
2022/09/25 03:23:19;;;;;;;22.13;14.37;;;15.60;99.90;;;;;;5004415;28;20445;-70
2022/09/25 03:25:46;;;;;;;17.00;13.83;;;15.50;99.90;;;;;;5000811;28;20429;-71
2022/09/25 03:28:13;;;;;;;16.80;15.00;;;15.50;99.90;;;;;;4995690;28;20453;-71
2022/09/25 03:30:39;;;;;;;18.90;15.50;;;15.60;99.90;;;;;;4998293;28;20476;-71
2022/09/25 03:33:10;;;;;;;19.00;14.77;;;15.60;99.90;;;;;;5001081;28;20859;-71
2022/09/25 03:35:39;;;;;;;17.40;15.53;;;15.60;99.90;;;;;;5001031;28;20417;-70
2022/09/25 03:38:09;;;;;;;20.50;16.07;;;15.60;99.90;;;;;;4999857;28;20968;-70
2022/09/25 03:40:34;;;;;;;19.37;16.63;;;15.60;99.90;;;;;;5006219;28;20436;-70
2022/09/25 03:43:01;;;;;;;18.87;16.30;;;15.70;99.90;;;;;;5006059;28;20622;-70
2022/09/25 03:45:27;;;;;;;21.50;16.47;;;15.60;99.90;;;;;;5004688;28;20587;-70
2022/09/25 03:47:52;;;;;;;20.90;16.80;;;15.60;99.90;;;;;;5000152;28;20472;-70
2022/09/25 03:50:18;;;;;;;16.77;14.57;;;15.70;99.90;;;;;;5003268;28;20461;-70
2022/09/25 03:52:44;;;;;;;18.90;15.37;;;15.70;99.90;;;;;;5004983;28;20198;-70
2022/09/25 03:55:10;;;;;;;18.93;15.80;;;15.70;99.90;;;;;;5001694;28;20184;-70
2022/09/25 03:57:38;;;;;;;20.23;16.67;;;15.60;99.90;;;;;;5003245;28;20244;-70
2022/09/25 04:00:05;;;;;;;18.70;15.53;;;15.60;99.90;;;;;;4995360;28;20508;-70
2022/09/25 04:02:31;;;;;;;22.60;17.63;;;15.70;99.90;;;;;;4985621;28;20511;-70
2022/09/25 04:04:58;;;;;;;19.20;16.20;;;15.60;99.90;;;;;;5000949;28;20461;-71
2022/09/25 04:07:24;;;;;;;20.27;16.27;;;15.60;99.90;;;;;;5001366;28;20192;-70
2022/09/25 04:09:50;;;;;;;20.20;16.93;;;15.60;99.90;;;;;;5001285;28;20472;-71
2022/09/25 04:12:16;;;;;;;20.07;16.50;;;15.70;99.90;;;;;;5002371;28;20443;-71
2022/09/25 04:14:45;;;;;;;23.93;17.80;;;15.70;99.90;;;;;;4998106;28;20413;-71
2022/09/25 04:17:11;;;;;;;20.20;17.30;;;15.70;99.90;;;;;;5002093;28;20456;-71
2022/09/25 04:19:37;;;;;;;21.47;16.20;;;15.60;99.90;;;;;;5000856;28;20429;-71
2022/09/25 04:22:02;;;;;;;20.60;16.40;;;15.60;99.90;;;;;;4996233;28;20210;-71
2022/09/25 04:27:13;;;;;;;19.10;16.53;;;15.60;99.90;;;;;;5004759;28;20604;-71
2022/09/25 04:29:41;;;;;;;22.00;16.90;;;15.60;99.90;;;;;;5004556;28;20492;-71
2022/09/25 04:34:52;;;;;;;19.33;16.10;;;15.60;99.90;;;;;;5000711;28;20406;-71
2022/09/25 04:37:20;;;;;;;18.90;16.27;;;15.60;99.90;;;;;;5004212;28;20459;-71
2022/09/25 04:39:45;;;;;;;19.63;16.20;;;15.50;99.90;;;;;;5004786;28;20450;-71
2022/09/25 04:42:11;;;;;;;19.07;16.57;;;15.50;99.90;;;;;;4995716;28;20455;-71
2022/09/25 04:44:37;;;;;;;19.63;16.50;;;15.50;99.90;;;;;;5004707;28;20740;-71
2022/09/25 04:47:03;;;;;;;19.93;17.00;;;15.50;99.90;;;;;;5006902;28;20474;-71
2022/09/25 04:49:29;;;;;;;20.70;17.17;;;15.40;99.90;;;;;;5003459;28;20229;-71
2022/09/25 04:51:55;;;;;;;21.37;17.07;;;15.40;99.90;;;;;;5000385;28;20261;-70
2022/09/25 04:54:21;;;;;;;20.30;17.20;;;15.30;99.90;;;;;;5004341;28;20974;-71
2022/09/25 04:56:47;;;;;;;20.70;16.53;;;15.40;99.90;;;;;;5002814;28;21090;-69
2022/09/25 04:59:16;;;;;;;19.17;16.73;;;15.40;99.90;;;;;;4998130;28;20441;-69
2022/09/25 05:01:42;;;;;;;19.90;15.23;;;15.40;99.90;;;;;;5001228;28;20223;-70
2022/09/25 05:04:08;;;;;;;20.60;16.30;;;15.30;99.90;;;;;;5003746;28;20498;-70
2022/09/25 05:06:34;;;;;;;19.30;16.30;;;15.30;99.90;;;;;;4998566;28;20182;-70
2022/09/25 05:08:59;;;;;;;17.47;15.60;;;15.40;99.90;;;;;;4996905;28;20424;-70
2022/09/25 05:11:25;;;;;;;17.43;14.60;;;15.40;99.90;;;;;;4999711;28;20294;-70
2022/09/25 05:13:52;;;;;;;17.50;15.03;;;15.30;99.90;;;;;;5001032;28;20713;-70
2022/09/25 05:16:18;;;;;;;18.63;14.83;;;15.40;99.90;;;;;;5006838;28;20831;-69
2022/09/25 05:18:44;;;;;;;17.43;14.43;;;15.40;99.90;;;;;;4997228;28;20554;-70
2022/09/25 05:21:10;;;;;;;17.20;15.33;;;15.50;99.90;;;;;;4999593;28;20531;-71
2022/09/25 05:23:36;;;;;;;16.20;14.10;;;15.50;99.90;;;;;;4997523;28;20528;-70
2022/09/25 05:26:02;;;;;;;17.10;15.10;;;15.60;99.90;;;;;;5007401;28;20428;-70
2022/09/25 05:28:29;;;;;;;16.70;13.80;;;15.60;99.90;;;;;;5008492;28;20200;-71
2022/09/25 05:30:57;;;;;;;16.57;14.67;;;15.60;99.90;;;;;;5005839;28;20536;-70
2022/09/25 05:33:23;;;;;;;21.53;14.17;;;15.60;99.90;;;;;;4996774;28;20574;-71
2022/09/25 05:35:49;;;;;;;18.80;15.60;;;15.50;99.90;;;;;;4997225;28;20479;-70
2022/09/25 05:38:15;;;;;;;18.23;15.20;;;15.50;99.90;;;;;;5001188;28;20174;-70
2022/09/25 05:40:41;;;;;;;18.20;16.10;;;15.30;99.90;;;;;;4997985;28;20442;-71
2022/09/25 05:43:11;;;;;;;14.93;13.43;;;15.30;99.90;;;;;;4997390;28;20487;-70
2022/09/25 05:45:38;;;;;;;17.83;14.57;;;15.40;99.90;;;;;;5002096;28;20448;-70
2022/09/25 05:48:06;;;;;;;16.87;12.77;;;15.40;99.90;;;;;;5000919;28;20447;-70
2022/09/25 05:50:32;;;;;;;15.90;14.10;;;15.50;99.90;;;;;;5001333;28;20220;-71
2022/09/25 05:53:00;;;;;;;16.93;13.37;;;15.40;99.90;;;;;;5000623;28;20436;-70
2022/09/25 05:55:26;;;;;;;16.90;13.60;;;15.30;99.90;;;;;;5004812;28;20777;-70
2022/09/25 05:57:52;;;;;;;16.00;13.73;;;15.30;99.90;;;;;;5000586;28;20439;-70
2022/09/25 06:00:18;;;;;;;15.43;13.87;;;15.30;99.90;;;;;;5004067;28;21046;-70
2022/09/25 06:02:44;;;;;;;15.67;13.47;;;15.30;99.90;;;;;;5000958;28;20561;-70
2022/09/25 06:05:10;;;;;;;17.60;14.13;;;15.30;99.90;;;;;;4997411;28;20965;-70
2022/09/25 06:07:36;;;;;;;15.70;14.00;;;15.40;99.90;;;;;;4997809;28;20196;-70
2022/09/25 06:10:02;;;;;;;19.10;13.43;;;15.50;99.90;;;;;;4993644;28;20623;-69
2022/09/25 06:12:29;;;;;;;14.40;12.63;;;15.50;99.90;;;;;;5002223;28;20483;-71
2022/09/25 06:14:55;;;;;;;16.30;12.60;;;15.50;99.90;;;;;;4998899;28;20758;-71
2022/09/25 06:17:20;;;;;;;17.13;13.50;;;15.50;99.90;;;;;;4998620;28;20503;-70
2022/09/25 06:19:46;;;;;;;16.10;12.80;;;15.40;99.90;;;;;;5002892;28;20617;-71
2022/09/25 06:22:13;;;;;;;16.23;12.50;;;15.50;99.90;;;;;;4997870;28;20208;-71
2022/09/25 06:24:38;;;;;;;14.90;12.83;;;15.50;99.90;;;;;;4995608;28;21174;-70
2022/09/25 06:27:08;;;;;;;13.70;12.20;;;15.60;99.90;;;;;;4984768;28;20934;-70
2022/09/25 06:29:34;;;;;;;13.60;11.50;;;15.60;99.90;;;;;;5003935;28;21107;-71
2022/09/25 06:32:01;;;;;;;16.10;13.63;;;15.70;99.90;;;;;;4999805;28;20476;-70
2022/09/25 06:34:30;;;;;;;14.60;13.10;;;15.70;99.90;;;;;;5006064;28;20683;-70
2022/09/25 06:36:55;;;;;;;13.53;12.23;;;15.70;99.90;;;;;;4999233;28;20416;-70
2022/09/25 06:39:21;;;;;;;16.70;12.63;;;15.60;99.90;;;;;;5005807;28;20498;-70
2022/09/25 06:41:47;;;;;;;16.30;12.33;;;15.70;99.90;;;;;;5003081;28;20550;-70
2022/09/25 06:44:13;;;;;;;15.10;12.60;;;15.60;99.90;;;;;;5000815;28;20726;-70
2022/09/25 06:46:39;;;;;;;13.90;12.50;;;15.60;99.90;;;;;;4994006;28;20235;-69
2022/09/25 06:49:05;;;;;;;15.43;12.33;;;15.60;99.90;;;;;;4999444;28;20189;-70
2022/09/25 06:51:34;;;;;;;13.17;11.80;;;15.60;99.90;;;;;;5002005;28;20453;-69
2022/09/25 06:54:00;;;;;;;11.83;10.67;;;15.60;99.90;;;;;;5001074;28;20185;-70
2022/09/25 06:56:26;;;;;;;13.10;11.70;;;15.80;99.90;;;;;;5001232;28;20478;-70
2022/09/25 06:58:52;;;;;;;18.43;10.67;;;15.70;99.90;;;;;;5002558;28;20598;-70
2022/09/25 07:01:18;;;;;;;14.13;11.10;;;15.70;99.90;;;;;;5001114;28;20436;-70
2022/09/25 07:03:43;;;;;;;12.70;10.93;;;15.60;99.90;;;;;;5005972;28;20848;-72
2022/09/25 07:06:15;;;;;;;15.20;11.03;;;15.60;99.90;;;;;;5003263;28;20570;-71
2022/09/25 07:08:42;;;;;;;14.67;11.80;;;15.70;99.90;;;;;;5004851;28;20201;-71
2022/09/25 07:11:12;;;;;;;14.17;10.80;;;15.60;99.90;;;;;;4999107;28;20472;-70
2022/09/25 07:13:38;;;;;;;13.93;12.00;;;15.60;99.90;;;;;;5001782;28;20417;-71
2022/09/25 07:16:18;;;;;;;14.80;11.97;;;15.60;99.90;;;;;;4997136;28;20463;-70
2022/09/25 07:18:45;;;;;;;12.63;11.33;;;15.60;99.90;;;;;;5004089;28;20196;-71
2022/09/25 07:21:18;;;;;;;14.40;10.77;;;15.70;99.90;;;;;;4997250;28;20816;-71
2022/09/25 07:23:47;;;;;;;15.03;11.13;;;15.60;99.90;;;;;;5010981;28;20468;-71
2022/09/25 07:26:22;;;;;;;16.97;10.90;;;15.60;99.90;;;;;;4997844;28;20446;-71
2022/09/25 07:28:56;;;;;;;12.40;11.20;;;15.60;99.90;;;;;;5005756;28;20445;-71
2022/09/25 07:31:28;;;;;;;12.70;11.00;;;15.50;99.90;;;;;;5010904;28;20498;-70
2022/09/25 07:33:54;;;;;;;12.40;11.10;;;15.40;99.90;;;;;;4984415;28;20417;-70
2022/09/25 07:36:20;;;;;;;14.33;11.63;;;15.50;99.90;;;;;;5007552;28;20490;-70
2022/09/25 07:38:52;;;;;;;12.57;11.27;;;15.60;99.90;;;;;;4999575;28;20439;-71
2022/09/25 07:41:21;;;;;;;14.97;11.07;;;15.60;99.90;;;;;;5007199;28;20448;-70
2022/09/25 07:43:51;;;;;;;13.17;11.80;;;15.60;99.90;;;;;;5000240;28;20452;-70
2022/09/25 07:46:17;;;;;;;14.33;12.37;;;15.50;99.90;;;;;;4997815;28;20978;-70
2022/09/25 07:48:43;;;;;;;16.83;12.43;;;15.50;99.90;;;;;;5008623;28;20439;-69
2022/09/25 07:51:10;;;;;;;14.70;12.80;;;15.70;99.90;;;;;;5003857;28;21004;-70
2022/09/25 07:53:37;;;;;;;13.47;11.67;;;15.70;99.90;;;;;;5004255;28;20461;-70
2022/09/25 07:56:03;;;;;;;15.00;12.70;;;15.80;99.90;;;;;;4998085;28;20420;-71
2022/09/25 07:58:29;;;;;;;14.80;13.20;;;15.70;99.90;;;;;;5003248;28;20444;-70
2022/09/25 08:01:00;;;;;;;13.70;12.20;;;15.70;99.90;;;;;;5004435;28;20421;-71
2022/09/25 08:03:27;;;;;;;15.20;13.37;;;15.70;99.90;;;;;;4998334;28;20451;-71
2022/09/25 08:05:57;;;;;;;15.70;12.10;;;15.80;99.90;;;;;;5001690;28;20526;-71
2022/09/25 08:08:23;;;;;;;16.40;13.77;;;15.80;99.90;;;;;;5002598;28;20808;-70
2022/09/25 08:10:50;;;;;;;19.80;13.90;;;15.70;99.90;;;;;;5005395;28;20535;-70
2022/09/25 08:13:19;;;;;;;17.13;13.87;;;15.80;99.90;;;;;;5001956;28;20201;-72
2022/09/25 08:15:55;;;;;;;19.13;12.97;;;15.80;99.90;;;;;;5000762;28;20825;-70
2022/09/25 08:18:20;;;;;;;15.73;12.90;;;15.80;99.90;;;;;;4988025;28;20546;-70
2022/09/25 08:20:46;;;;;;;19.23;14.87;;;15.90;99.90;;;;;;4999628;28;20455;-70
2022/09/25 08:23:12;;;;;;;16.07;14.13;;;15.90;99.90;;;;;;4998364;28;20201;-70
2022/09/25 08:25:38;;;;;;;17.10;13.10;;;15.90;99.90;;;;;;4993907;28;20717;-70
2022/09/25 08:28:04;;;;;;;17.60;14.70;;;16.00;99.90;;;;;;4996670;28;20432;-70
2022/09/25 08:30:30;;;;;;;18.50;13.97;;;16.00;99.90;;;;;;4993651;28;20249;-70
2022/09/25 08:32:55;;;;;;;17.07;12.70;;;16.10;99.90;;;;;;5005506;28;20552;-70
2022/09/25 08:35:21;;;;;;;16.90;14.53;;;16.20;99.90;;;;;;4998958;28;20444;-70
2022/09/25 08:37:47;;;;;;;19.20;14.87;;;16.20;99.90;;;;;;5013841;28;20680;-70
2022/09/25 08:40:23;;;;;;;17.57;14.33;;;16.30;99.90;;;;;;5010894;28;20186;-71
2022/09/25 08:42:52;;;;;;;21.93;14.87;;;16.40;99.90;;;;;;5009795;28;20614;-70
2022/09/25 08:51:21;;;;;;;17.70;14.93;;;16.70;99.90;;;;;;4996200;28;20622;-71
2022/09/25 08:53:47;;;;;;;16.43;13.77;;;16.70;99.90;;;;;;5007274;28;20578;-70
2022/09/25 08:56:14;;;;;;;19.07;14.03;;;16.70;99.90;;;;;;4998915;28;20792;-70
2022/09/25 08:59:22;;;;;;;23.53;14.60;;;16.70;99.90;;;;;;4998931;28;20805;-70
2022/09/25 09:01:54;;;;;;;19.60;14.67;;;16.70;99.90;;;;;;4957189;28;20963;-70
2022/09/25 09:04:31;;;;;;;19.83;14.80;;;16.80;99.90;;;;;;5003236;28;20421;-70
2022/09/25 09:07:21;;;;;;;18.47;14.23;;;16.80;99.90;;;;;;5001250;28;21260;-70
2022/09/25 09:09:57;;;;;;;15.20;13.43;;;16.80;99.90;;;;;;5005074;28;20475;-70
2022/09/25 09:12:49;;;;;;;17.70;12.43;;;16.90;99.90;;;;;;5003105;28;20458;-71
2022/09/25 09:15:20;;;;;;;14.63;13.03;;;16.80;99.90;;;;;;5000618;28;20859;-70
2022/09/25 09:17:46;;;;;;;14.77;13.20;;;17.00;99.90;;;;;;4999039;28;20421;-70
2022/09/25 09:20:22;;;;;;;15.40;13.30;;;17.00;99.90;;;;;;4998270;28;21072;-70
2022/09/25 09:22:51;;;;;;;15.17;13.63;;;17.00;99.90;;;;;;4998956;28;20201;-73
2022/09/25 09:25:45;;;;;;;17.30;14.53;;;17.00;99.90;;;;;;5006067;28;20514;-72
2022/09/25 09:28:49;;;;;;;16.20;14.10;;;17.00;99.90;;;;;;4998649;28;20433;-72
2022/09/25 09:31:26;;;;;;;16.60;14.10;;;17.00;99.90;;;;;;5002085;28;20484;-71
2022/09/25 09:34:00;;;;;;;19.53;16.60;;;17.10;99.90;;;;;;4998347;28;20924;-71
2022/09/25 09:36:36;;;;;;;14.63;13.13;;;17.10;99.90;;;;;;4997000;28;20445;-69
2022/09/25 09:39:13;;;;;;;15.80;11.70;;;17.20;99.90;;;;;;4998218;28;20420;-71
2022/09/25 09:41:53;;;;;;;13.27;11.90;;;17.40;99.90;;;;;;4999665;28;20436;-71
2022/09/25 09:44:56;;;;;;;12.33;10.80;;;17.50;99.90;;;;;;5003395;28;20434;-72
2022/09/25 09:47:46;;;;;;;14.67;13.17;;;17.50;99.90;;;;;;4993718;28;20537;-71
2022/09/25 09:50:44;;;;;;;13.93;12.53;;;17.40;99.90;;;;;;4995819;28;20583;-71
2022/09/25 09:53:41;;;;;;;12.77;11.47;;;17.50;99.90;;;;;;4997151;28;20875;-71
2022/09/25 09:56:17;;;;;;;11.30;10.10;;;17.60;99.90;;;;;;5003673;28;20834;-72
2022/09/25 09:58:49;;;;;;;11.77;10.13;;;17.70;99.90;;;;;;5000576;28;20632;-71
2022/09/25 10:01:19;;;;;;;10.93;9.73;;;17.80;99.90;;;;;;4993406;28;20456;-72
2022/09/25 10:04:02;;;;;;;14.10;11.77;;;17.90;99.90;;;;;;4995871;28;20447;-71
2022/09/25 10:06:32;;;;;;;12.90;10.53;;;17.80;99.90;;;;;;5001799;28;20480;-70
2022/09/25 10:08:59;;;;;;;12.53;9.97;;;17.70;99.90;;;;;;4997384;28;20425;-71
2022/09/25 10:11:25;;;;;;;12.70;10.20;;;17.70;99.90;;;;;;5000852;28;20526;-71
2022/09/25 10:13:52;;;;;;;8.60;7.77;;;17.50;99.90;;;;;;4995917;28;20447;-71
2022/09/25 10:16:22;;;;;;;8.73;7.60;;;17.50;99.90;;;;;;5005950;28;20420;-71
2022/09/25 10:19:18;;;;;;;9.47;8.17;;;17.50;99.90;;;;;;5004999;28;20766;-72
2022/09/25 10:22:04;;;;;;;12.30;9.10;;;17.40;99.90;;;;;;4997200;28;20463;-72
2022/09/25 10:24:50;;;;;;;13.77;12.37;;;17.40;99.90;;;;;;4992764;28;20432;-71
2022/09/25 10:27:40;;;;;;;17.43;11.03;;;17.40;99.90;;;;;;4983329;28;20998;-72
2022/09/25 10:30:09;;;;;;;15.37;8.33;;;17.30;99.90;;;;;;5005067;28;20465;-71
2022/09/25 10:33:12;;;;;;;9.37;7.50;;;17.30;99.90;;;;;;5006299;28;20463;-71
2022/09/25 10:35:37;;;;;;;10.13;7.27;;;17.30;99.90;;;;;;5006455;28;20674;-71
2022/09/25 10:38:13;;;;;;;10.07;8.03;;;17.30;99.90;;;;;;4996120;28;20907;-69
2022/09/25 10:40:39;;;;;;;7.93;6.60;;;17.30;99.90;;;;;;4994392;28;20219;-69
2022/09/25 10:43:16;;;;;;;10.30;7.83;;;17.30;99.90;;;;;;4997274;28;20475;-69
2022/09/25 10:45:42;;;;;;;12.73;7.60;;;17.30;99.90;;;;;;4993842;28;20451;-69
2022/09/25 10:51:21;;;;;;;26.50;21.83;;;17.20;99.90;;;;;;4996938;28;20482;-72
2022/09/25 10:53:54;;;;;;;14.10;11.13;;;17.20;99.90;;;;;;4993927;28;20503;-71
2022/09/25 10:56:31;;;;;;;10.60;7.80;;;17.10;99.90;;;;;;4993419;28;20449;-69
2022/09/25 10:59:00;;;;;;;8.63;7.10;;;17.10;99.90;;;;;;4993622;28;20547;-70
2022/09/25 11:01:36;;;;;;;8.70;7.60;;;17.10;99.90;;;;;;5001952;28;20570;-70
2022/09/25 11:04:33;;;;;;;13.50;10.70;;;17.00;99.90;;;;;;5001121;28;20463;-70
2022/09/25 11:07:03;;;;;;;11.37;9.23;;;17.00;99.90;;;;;;4987840;28;20448;-70
2022/09/25 11:09:32;;;;;;;11.07;9.93;;;17.00;99.90;;;;;;4990637;28;20468;-71
2022/09/25 11:12:14;;;;;;;8.90;7.80;;;17.00;99.90;;;;;;4998285;28;20460;-70
2022/09/25 11:14:54;;;;;;;16.20;12.50;;;17.00;99.90;;;;;;5000821;28;20451;-70
2022/09/25 11:17:50;;;;;;;12.10;10.13;;;17.00;99.90;;;;;;5009893;28;20442;-71
2022/09/25 11:20:49;;;;;;;9.83;7.80;;;17.00;99.90;;;;;;4999358;28;20538;-70
2022/09/25 11:23:40;;;;;;;12.70;11.23;;;17.00;99.90;;;;;;4992580;28;20502;-69
2022/09/25 11:26:20;;;;;;;7.13;6.20;;;17.00;99.90;;;;;;4985343;28;20807;-70
2022/09/25 11:29:04;;;;;;;8.00;6.87;;;16.90;99.90;;;;;;4994141;28;20444;-70
2022/09/25 11:31:36;;;;;;;9.33;6.60;;;16.90;99.90;;;;;;4999416;28;20484;-71
2022/09/25 11:34:32;;;;;;;7.30;5.90;;;16.90;99.90;;;;;;4994409;28;20441;-69
2022/09/25 11:37:22;;;;;;;10.40;5.60;;;17.00;99.90;;;;;;4997768;28;20442;-70
2022/09/25 11:43:07;;;;;;;8.83;6.70;;;17.10;99.90;;;;;;4989598;28;20792;-70
2022/09/25 11:45:46;;;;;;;6.70;5.37;;;17.20;99.90;;;;;;4990861;28;20448;-71
2022/09/25 11:48:21;;;;;;;6.37;5.73;;;17.30;99.90;;;;;;4991423;28;20421;-71
2022/09/25 11:51:12;;;;;;;5.60;5.10;;;17.30;99.90;;;;;;5000563;28;20460;-71
2022/09/25 11:54:17;;;;;;;6.50;5.73;;;17.30;99.90;;;;;;4990393;28;20859;-71
2022/09/25 11:57:12;;;;;;;6.70;5.30;;;17.40;99.90;;;;;;4943127;28;20895;-71
2022/09/25 12:00:03;;;;;;;6.83;6.07;;;17.60;99.90;;;;;;4939208;28;20455;-70
2022/09/25 12:02:53;;;;;;;7.13;5.57;;;17.70;99.90;;;;;;4984737;28;20577;-69
2022/09/25 12:05:34;;;;;;;8.90;6.03;;;17.70;99.90;;;;;;4987898;28;20444;-71
2022/09/25 12:08:14;;;;;;;6.70;5.63;;;17.50;99.90;;;;;;4988768;28;20554;-71
2022/09/25 12:10:55;;;;;;;11.80;5.57;;;17.50;99.90;;;;;;4993683;28;20543;-71
2022/09/25 12:13:30;;;;;;;6.20;5.40;;;17.50;99.90;;;;;;4995515;28;20987;-70
2022/09/25 12:15:59;;;;;;;8.33;6.90;;;17.70;99.90;;;;;;5007959;28;20445;-70
2022/09/25 12:19:02;;;;;;;7.00;6.30;;;17.90;99.90;;;;;;4999359;28;20491;-71
2022/09/25 12:21:47;;;;;;;9.57;8.23;;;18.00;99.90;;;;;;4995730;28;20555;-71
2022/09/25 12:24:33;;;;;;;6.77;6.17;;;18.10;99.90;;;;;;4998916;28;20448;-71
2022/09/25 12:27:21;;;;;;;7.20;6.50;;;18.20;99.90;;;;;;4990989;28;20470;-71
2022/09/25 12:30:02;;;;;;;7.47;6.67;;;18.20;99.90;;;;;;4992307;28;20479;-70
2022/09/25 12:32:37;;;;;;;6.07;5.20;;;18.20;99.90;;;;;;4988111;28;21288;-71
2022/09/25 12:35:21;;;;;;;5.67;5.17;;;18.50;99.90;;;;;;4993639;28;21108;-71
2022/09/25 12:37:53;;;;;;;7.40;6.43;;;18.60;99.90;;;;;;4991657;28;20445;-71
2022/09/25 12:40:32;;;;;;;6.13;5.50;;;18.80;99.90;;;;;;4994951;28;20444;-71
2022/09/25 12:43:01;;;;;;;6.40;5.50;;;18.90;99.90;;;;;;4996278;28;20488;-71
2022/09/25 12:46:01;;;;;;;6.57;5.87;;;18.70;99.90;;;;;;4992427;28;20534;-71
2022/09/25 12:48:32;;;;;;;6.77;6.03;;;18.80;99.90;;;;;;4978116;28;20459;-70
2022/09/25 12:51:05;;;;;;;6.07;5.47;;;18.80;99.90;;;;;;4990292;28;20481;-69
2022/09/25 12:53:55;;;;;;;7.90;6.87;;;18.70;99.90;;;;;;4993965;28;20819;-72
2022/09/25 12:56:44;;;;;;;7.27;6.43;;;18.70;99.90;;;;;;4992988;28;21116;-69
2022/09/25 12:59:32;;;;;;;7.50;6.70;;;18.60;99.90;;;;;;4990265;28;20569;-69
2022/09/25 13:02:00;;;;;;;8.90;5.97;;;18.70;99.90;;;;;;4994165;28;20476;-70
2022/09/25 13:04:54;;;;;;;6.53;5.13;;;18.70;99.90;;;;;;4989599;28;20760;-70
2022/09/25 13:07:35;;;;;;;10.07;7.23;;;18.50;99.90;;;;;;4992074;28;20447;-70
2022/09/25 13:10:08;;;;;;;8.83;7.47;;;18.50;99.90;;;;;;4987509;28;22090;-71
2022/09/25 13:12:38;;;;;;;7.03;6.33;;;18.60;99.90;;;;;;4994774;28;20440;-69
2022/09/25 13:15:14;;;;;;;9.87;6.60;;;18.50;99.90;;;;;;4986514;28;20463;-70
2022/09/25 13:17:40;;;;;;;9.83;6.87;;;18.60;99.90;;;;;;4990980;28;20455;-70
2022/09/25 13:20:25;;;;;;;9.23;6.93;;;18.60;99.90;;;;;;4986780;28;20941;-69
2022/09/25 13:22:55;;;;;;;7.73;6.93;;;18.60;99.90;;;;;;4990057;28;20522;-70